Latest Weather Observations for Derby

IDW60801

Issued at 2:02 pm WST Wednesday 28 January 2015 (issued every 30 minutes, with the page automatically refreshed every 10 minutes)

About weather observations | Map of weather stations | Latest weather observations for WA | Other Formats
Station Details ID: 003032 Name: DERBY AERO Lat: -17.37 Lon: 123.66 Height: 6.2 m
Data from the previous 72 hours. | See also: Recent months at Derby
Date/Time
WST
Temp
°C
App
Temp
°C
Dew
Point
Rel
Hum
%
Delta-T
°C
Wind Press
QNH
hPa
Press
MSL
hPa
Rain
since 9 am
mm
Dir
 
Spd
km/h
Gust
km/h
Spd
kts
Gust
kts
28/02:00pm 34.9 38.8 22.9 49 8.3 SW 7 15 4 8 1003.5 1003.4 0.0
28/01:30pm 34.1 37.0 23.1 52 7.6 SSE 13 19 7 10 1003.8 1003.7 0.0
28/01:00pm 34.0 39.0 24.8 58 6.5 SSW 7 17 4 9 1004.2 1004.1 0.0
28/12:30pm 33.4 36.8 24.0 58 6.6 SW 13 20 7 11 1004.7 1004.6 0.0
28/12:00pm 33.0 36.0 23.3 56 6.7 SSW 13 20 7 11 1005.4 1005.3 0.0
28/11:30am 33.6 38.0 25.6 63 5.7 SSE 13 19 7 10 1006.1 1006.0 0.0
28/11:00am 31.5 34.4 23.9 64 5.3 S 15 20 8 11 1006.6 1006.6 0.0
28/10:30am 32.4 36.4 25.0 65 5.2 SSE 13 19 7 10 1006.8 1006.8 0.0
28/10:00am 32.0 36.0 25.6 69 4.6 SSW 15 19 8 10 1007.2 1007.2 0.0
28/09:30am 31.1 34.5 24.7 68 4.5 S 15 24 8 13 1007.5 1007.5 0.0
28/09:00am 30.3 33.2 24.4 70 4.1 SSW 17 24 9 13 1007.6 1007.6 0.0
28/08:30am 30.0 33.4 24.6 73 3.8 SSW 15 22 8 12 1007.7 1007.7 0.0
28/08:00am 29.1 33.4 24.2 75 3.4 S 9 13 5 7 1007.7 1007.7 0.0
28/07:30am 28.6 33.6 24.8 80 2.7 SSE 7 9 4 5 1007.7 1007.7 0.0
28/07:00am 27.5 32.3 24.5 84 2.1 SSW 7 11 4 6 1007.6 1007.6 0.0
28/06:30am 26.8 32.1 24.3 86 1.7 SSE 4 6 2 3 1007.2 1007.2 0.0
28/06:00am 25.7 31.1 24.5 93 0.8 ESE 4 7 2 4 1006.9 1006.9 0.0
28/05:30am 25.2 30.0 24.2 94 0.7 ESE 6 7 3 4 1006.3 1006.2 0.0
28/05:00am 25.0 29.6 23.8 93 0.8 SE 6 7 3 4 1006.0 1005.9 0.0
28/04:30am 25.2 29.8 23.8 92 1.0 SE 6 7 3 4 1005.6 1005.5 0.0
28/04:00am 25.5 30.0 23.9 91 1.1 SW 7 7 4 4 1005.5 1005.4 0.0
28/03:30am 25.6 30.3 24.0 91 1.1 WSW 6 7 3 4 1005.3 1005.2 0.0
28/03:00am 25.7 30.5 24.1 91 1.1 SW 6 7 3 4 1005.3 1005.2 0.0
28/02:30am 25.6 31.4 24.0 91 1.1 CALM 0 0 0 0 1005.1 1005.0 0.0
28/02:00am 25.7 31.7 24.3 92 1.0 CALM 0 0 0 0 1005.0 1004.9 0.0
28/01:30am 25.8 30.6 24.4 92 1.0 SW 7 9 4 5 1004.9 1004.8 0.0
28/01:00am 25.9 30.9 24.5 92 1.0 S 6 7 3 4 1005.1 1005.0 0.0
28/12:30am 25.9 31.5 24.3 91 1.1 SE 2 7 1 4 1005.4 1005.3 0.0
28/12:00am 26.3 32.3 24.3 89 1.4 CALM 0 0 0 0 1006.0 1005.9 0.0
 
Date/Time
WST
Temp
°C
App
Temp
°C
Dew
Point
Rel
Hum
%
Delta-T
°C
Wind Press
QNH
hPa
Press
MSL
hPa
Rain
since 9 am
mm
Dir
 
Spd
km/h
Gust
km/h
Spd
kts
Gust
kts
27/11:30pm 26.3 32.3 24.3 89 1.4 CALM 0 4 0 2 1006.3 1006.2 0.0
27/11:00pm 26.3 31.9 24.3 89 1.4 ESE 2 6 1 3 1006.9 1006.9 0.0
27/10:30pm 26.6 32.2 24.3 87 1.6 NNE 2 6 1 3 1006.9 1006.9 0.0
27/10:00pm 26.7 32.7 24.2 86 1.7 CALM 0 0 0 0 1007.0 1007.0 0.0
27/09:30pm 27.0 32.9 24.1 84 2.0 CALM 0 0 0 0 1006.7 1006.7 0.0
27/09:00pm 27.0 31.6 24.1 84 2.0 E 7 11 4 6 1007.1 1007.1 0.0
27/08:30pm 27.5 33.0 24.1 82 2.3 NNW 2 7 1 4 1006.8 1006.8 0.0
27/08:00pm 27.6 32.5 24.4 83 2.2 NNE 6 7 3 4 1006.5 1006.5 0.0
27/07:30pm 27.5 30.7 24.3 83 2.2 NW 15 17 8 9 1006.3 1006.2 0.0
27/07:00pm 27.9 31.2 23.9 79 2.8 WSW 13 17 7 9 1006.8 1006.8 0.0
27/06:30pm 27.7 31.3 23.1 76 3.1 WNW 9 11 5 6 1005.9 1005.8 0.0
27/06:00pm 28.6 31.3 22.8 71 4.0 NNW 13 17 7 9 1005.1 1005.0 0.0
27/05:30pm 28.7 31.9 23.1 71 3.8 N 11 13 6 7 1005.4 1005.3 0.0
27/05:00pm 28.6 32.9 23.3 73 3.6 NW 6 9 3 5 1005.8 1005.7 0.0
27/04:30pm 28.6 33.8 22.8 71 3.9 CALM 0 0 0 0 1005.7 1005.6 0.0
27/04:00pm 28.1 32.4 23.7 77 3.0 SSW 7 13 4 7 1005.5 1005.4 0.0
27/03:30pm 28.1 32.3 23.5 76 3.2 SSE 7 11 4 6 1005.4 1005.3 0.0
27/03:00pm 27.6 31.3 23.2 77 3.0 ENE 9 13 5 7 1005.6 1005.5 0.0
27/02:30pm 26.7 30.4 22.5 78 2.8 ESE 7 11 4 6 1005.8 1005.7 0.0
27/02:00pm 25.9 29.1 22.4 81 2.4 ESE 9 13 5 7 1005.7 1005.6 0.0
27/01:30pm 26.1 28.7 22.6 81 2.4 E 13 19 7 10 1006.6 1006.6 0.0
27/01:00pm 25.3 25.1 22.8 86 1.7 ESE 28 33 15 18 1007.6 1007.6 0.0
27/12:30pm 26.3 24.3 22.6 80 2.5 S 37 54 20 29 1007.3 1007.3 0.0
27/12:28pm 26.7 24.5 22.8 79 2.6 S 39 54 21 29 1007.2 1007.2 0.0
27/12:12pm 29.6 29.2 24.0 72 3.9 SW 33 48 18 26 1007.4 1007.4 0.0
27/12:00pm 32.1 33.2 24.4 63 5.4 W 26 37 14 20 1007.0 1007.0 0.0
27/11:54am 32.4 35.2 25.0 65 5.2 W 19 37 10 20 1006.8 1006.8 0.0
27/11:30am 33.3 37.6 24.2 59 6.4 SW 9 17 5 9 1006.9 1006.9 0.0
27/11:00am 32.5 36.6 24.5 62 5.6 WSW 11 17 6 9 1007.6 1007.6 0.0
27/10:30am 31.8 35.9 25.2 68 4.7 WSW 13 22 7 12 1007.7 1007.7 0.0
27/10:00am 31.8 36.3 25.2 68 4.7 SSW 11 19 6 10 1008.3 1008.3 0.0
27/09:30am 31.0 34.9 24.9 70 4.3 SSW 13 22 7 12 1008.8 1008.8 0.0
27/09:00am 30.6 35.5 25.9 76 3.3 SSE 11 17 6 9 1009.0 1009.0 0.0
27/08:30am 30.5 35.8 25.8 76 3.3 WSW 9 13 5 7 1009.1 1009.1 0.0
27/08:00am 29.4 34.8 25.4 79 2.8 SSW 7 11 4 6 1009.1 1009.1 0.0
27/07:30am 29.2 34.6 25.2 79 2.8 SW 6 9 3 5 1009.0 1009.0 0.0
27/07:00am 28.9 34.5 25.5 82 2.4 SSE 6 7 3 4 1008.9 1008.9 0.0
27/06:30am 27.5 34.1 25.3 88 1.5 CALM 0 0 0 0 1008.5 1008.5 0.0
27/06:00am 26.7 33.5 25.5 93 0.8 CALM 0 0 0 0 1008.2 1008.2 0.0
27/05:30am 26.5 33.0 25.1 92 1.0 CALM 0 2 0 1 1007.8 1007.8 0.0
27/05:00am 26.8 32.2 25.4 92 1.0 SSW 7 7 4 4 1007.5 1007.5 0.0
27/04:30am 26.8 32.3 25.6 93 0.8 SSW 7 9 4 5 1007.0 1007.0 0.0
27/04:00am 26.7 32.3 25.5 93 0.8 WSW 6 7 3 4 1006.8 1006.8 0.0
27/03:30am 26.9 32.3 25.5 92 1.0 SW 7 9 4 5 1006.7 1006.7 0.0
27/03:00am 27.0 32.4 25.4 91 1.1 SW 7 9 4 5 1006.7 1006.7 0.0
27/02:30am 27.1 32.0 25.3 90 1.3 WSW 9 9 5 5 1006.4 1006.4 0.0
27/02:00am 27.4 32.4 25.4 89 1.4 WSW 9 11 5 6 1006.5 1006.5 0.0
27/01:30am 27.7 31.9 25.3 87 1.7 W 13 17 7 9 1006.4 1006.4 0.0
27/01:00am 27.8 32.8 25.4 87 1.7 W 9 13 5 7 1006.6 1006.6 0.0
27/12:30am 27.9 32.5 25.9 89 1.4 WNW 13 17 7 9 1006.5 1006.5 0.0
27/12:00am 26.8 32.7 24.1 85 1.9 CALM 0 7 0 4 1006.5 1006.5 0.0
 
Date/Time
WST
Temp
°C
App
Temp
°C
Dew
Point
Rel
Hum
%
Delta-T
°C
Wind Press
QNH
hPa
Press
MSL
hPa
Rain
since 9 am
mm
Dir
 
Spd
km/h
Gust
km/h
Spd
kts
Gust
kts
26/11:30pm 27.1 31.7 23.8 82 2.3 ENE 6 9 3 5 1006.9 1006.9 0.0
26/11:00pm 27.1 31.2 24.0 83 2.1 E 9 11 5 6 1007.5 1007.5 0.0
26/10:30pm 27.4 31.8 23.8 81 2.5 N 7 9 4 5 1007.6 1007.6 0.0
26/10:00pm 27.4 31.7 23.6 80 2.6 N 7 11 4 6 1008.0 1008.0 0.0
26/09:30pm 27.6 31.5 23.6 79 2.7 N 9 13 5 7 1008.1 1008.1 0.0
26/09:00pm 27.7 31.4 23.3 77 3.0 N 9 15 5 8 1008.0 1008.0 0.0
26/08:30pm 28.0 32.0 23.1 74 3.3 NE 7 9 4 5 1008.1 1008.1 0.0
26/08:00pm 27.7 30.2 23.1 76 3.1 N 15 19 8 10 1007.5 1007.5 0.0
26/07:30pm 27.9 30.6 22.8 74 3.5 NNE 13 17 7 9 1007.8 1007.8 0.0
26/07:00pm 27.7 28.6 22.6 74 3.5 N 22 32 12 17 1007.5 1007.5 0.0
26/06:30pm 28.7 31.1 22.2 68 4.4 NNE 13 17 7 9 1007.2 1007.2 0.0
26/06:00pm 29.0 31.6 22.0 66 4.7 NE 11 17 6 9 1006.7 1006.7 0.0
26/05:30pm 28.2 28.9 21.2 65 4.7 NE 19 28 10 15 1006.2 1006.1 0.0
26/05:00pm 29.3 29.5 21.3 62 5.4 ENE 22 37 12 20 1006.4 1006.4 0.0
26/04:30pm 32.0 34.9 25.1 67 4.9 N 19 26 10 14 1006.1 1006.0 0.0
26/04:00pm 32.6 35.3 25.7 67 4.9 NNW 22 26 12 14 1005.5 1005.4 0.0
26/03:30pm 33.2 35.9 24.7 61 6.0 NNW 19 28 10 15 1005.3 1005.2 0.0
26/03:00pm 33.8 35.9 24.1 57 6.8 NW 20 26 11 14 1004.9 1004.8 0.0
26/02:30pm 33.7 37.4 25.7 63 5.7 NNW 17 24 9 13 1004.8 1004.7 0.0
26/02:00pm 32.4 36.0 25.0 65 5.2 NNW 15 22 8 12 1005.7 1005.6 0.0
26/01:30pm 32.2 36.1 25.5 67 4.8 NNW 15 20 8 11 1006.1 1006.0 0.0
26/01:00pm 32.5 36.4 24.8 64 5.4 WNW 13 17 7 9 1006.6 1006.6 0.0
26/12:30pm 33.3 38.6 25.8 65 5.4 WNW 9 15 5 8 1006.8 1006.8 0.0
26/12:00pm 32.3 36.9 25.4 67 4.9 NW 11 15 6 8 1007.6 1007.6 0.0
26/11:30am 31.9 36.0 24.0 63 5.5 WSW 9 15 5 8 1008.2 1008.2 0.0
26/11:00am 31.7 37.1 25.5 69 4.4 W 7 13 4 7 1009.3 1009.3 0.0
26/10:30am 31.4 36.3 25.3 70 4.3 SW 9 15 5 8 1009.4 1009.4 0.0
26/10:00am 31.0 35.9 25.8 74 3.7 SW 11 15 6 8 1009.8 1009.8 0.0
26/09:30am 30.8 35.6 26.3 77 3.2 SW 13 17 7 9 1010.0 1010.0 0.0
26/09:00am 30.1 35.1 26.0 78 2.9 WSW 11 17 6 9 1009.5 1009.5 0.0
26/08:30am 29.8 35.3 26.2 81 2.6 WSW 9 11 5 6 1009.4 1009.4 0.0
26/08:00am 29.2 34.6 26.0 83 2.3 WNW 9 11 5 6 1009.1 1009.1 0.0
26/07:30am 28.9 34.6 25.9 84 2.1 WSW 7 9 4 5 1009.4 1009.4 0.0
26/07:00am 28.9 34.9 26.1 85 2.0 WSW 6 7 3 4 1009.5 1009.5 0.0
26/06:30am 28.0 34.1 26.2 90 1.3 NNW 6 7 3 4 1009.1 1009.1 0.0
26/06:00am 27.5 34.2 25.9 91 1.1 NNE 2 6 1 3 1009.1 1009.1 0.0
26/05:30am 27.5 33.3 25.7 90 1.3 ENE 6 7 3 4 1009.1 1009.1 0.0
26/05:00am 27.2 33.0 25.8 92 1.0 N 6 6 3 3 1008.6 1008.6 0.0
26/04:30am 26.9 32.1 25.7 93 0.8 NW 9 9 5 5 1007.9 1007.9 0.0
26/04:00am 26.8 31.8 25.4 92 1.0 WNW 9 9 5 5 1007.4 1007.4 0.0
26/03:30am 27.0 32.3 25.2 90 1.3 W 7 9 4 5 1007.3 1007.3 0.0
26/03:00am 27.1 32.4 25.3 90 1.3 W 7 9 4 5 1007.3 1007.3 0.0
26/02:30am 27.2 32.1 25.2 89 1.4 W 9 11 5 6 1007.3 1007.3 0.0
26/02:00am 27.0 31.7 25.0 89 1.4 WNW 9 11 5 6 1007.3 1007.3 0.0
26/01:30am 27.3 32.5 25.1 88 1.5 W 7 9 4 5 1007.5 1007.5 0.0
26/01:00am 27.5 32.7 25.1 87 1.7 W 7 9 4 5 1007.5 1007.5 0.0
26/12:30am 27.7 32.6 25.3 87 1.7 WSW 9 11 5 6 1007.6 1007.6 0.0
26/12:00am 28.0 32.5 25.2 85 2.0 W 11 13 6 7 1007.8 1007.8 0.0
 
Date/Time
WST
Temp
°C
App
Temp
°C
Dew
Point
Rel
Hum
%
Delta-T
°C
Wind Press
QNH
hPa
Press
MSL
hPa
Rain
since 9 am
mm
Dir
 
Spd
km/h
Gust
km/h
Spd
kts
Gust
kts
25/11:30pm 28.2 33.2 25.4 85 2.0 W 9 13 5 7 1008.2 1008.2 0.0
25/11:00pm 28.5 32.4 24.9 81 2.5 WNW 13 17 7 9 1008.4 1008.4 0.0
25/10:30pm 28.7 33.3 25.3 82 2.4 WNW 11 17 6 9 1008.3 1008.3 0.0
25/10:00pm 28.9 32.8 25.5 82 2.4 WNW 15 19 8 10 1007.9 1007.9 0.0
25/09:30pm 29.3 32.7 25.3 79 2.8 NW 17 20 9 11 1007.6 1007.6 0.0
25/09:00pm 29.7 33.2 25.4 78 3.0 NW 17 20 9 11 1007.5 1007.5 0.0
25/08:30pm 29.9 33.6 26.3 81 2.6 NNW 19 24 10 13 1007.4 1007.4 0.0
25/08:00pm 29.9 33.4 26.3 81 2.6 NNW 20 26 11 14 1006.7 1006.7 0.0
25/07:30pm 30.1 32.3 24.3 71 4.0 NNW 20 24 11 13 1006.6 1006.6 0.0
25/07:00pm 30.2 32.8 24.6 72 3.9 NNW 19 22 10 12 1006.3 1006.2 0.0
25/06:30pm 30.1 32.2 25.4 76 3.3 NNW 24 30 13 16 1005.9 1005.8 0.0
25/06:00pm 30.6 32.6 25.2 73 3.8 NNW 24 28 13 15 1005.4 1005.3 0.0
25/05:30pm 31.9 34.7 25.2 67 4.7 NNW 20 28 11 15 1005.1 1005.0 0.0
25/05:00pm 33.0 35.5 24.7 61 5.9 NNW 20 24 11 13 1005.0 1004.9 0.0
25/04:30pm 33.6 36.0 24.2 58 6.6 NNW 19 24 10 13 1005.1 1005.0 0.0
25/04:00pm 33.3 35.8 25.3 63 5.7 NNW 22 28 12 15 1005.4 1005.3 0.0
25/03:30pm 32.7 33.7 24.7 62 5.6 NNW 28 32 15 17 1005.6 1005.5 0.0
25/03:00pm 33.3 35.0 25.3 63 5.7 NNW 26 33 14 18 1006.0 1005.9 0.0
25/02:30pm 33.6 35.6 25.8 63 5.6 NNW 26 32 14 17 1006.1 1006.0 0.0

Other Formats:

Comma delimited format used in spreadsheet applications
http://www.bom.gov.au/fwo/IDW60801/IDW60801.95205.axf

JavaScript Object Notation format (JSON) in row-major order
http://www.bom.gov.au/fwo/IDW60801/IDW60801.95205.json